Time;durP1;ratioP1;P1;durP2;ratioP2;P2;SDS_P1;SDS_P2;PMS_P1;PMS_P2;Temp;Humidity;BMP_temperature;BMP_pressure;BME280_temperature;BME280_humidity;BME280_pressure;Samples;Min_cycle;Max_cycle;Signal;HPM_P1;HPM_P2
2021/12/19 00:01:28;;;;;;;251.98;123.38;;;4.20;99.90;;;;;;5035924;28;20116;-80
2021/12/19 00:09:33;;;;;;;88.88;54.28;;;4.30;99.90;;;;;;5034222;28;20445;-80
2021/12/19 00:11:59;;;;;;;123.70;80.63;;;4.20;99.90;;;;;;5033063;28;20029;-80
2021/12/19 00:14:25;;;;;;;143.13;100.30;;;4.20;99.90;;;;;;5037335;28;20048;-80
2021/12/19 00:16:54;;;;;;;115.25;77.00;;;4.20;99.90;;;;;;5036946;28;20029;-79
2021/12/19 00:19:20;;;;;;;99.63;61.13;;;4.30;99.90;;;;;;5035770;28;20489;-79
2021/12/19 00:21:46;;;;;;;97.10;55.17;;;4.20;99.90;;;;;;5035308;28;20029;-80
2021/12/19 00:24:12;;;;;;;96.28;56.20;;;4.40;99.90;;;;;;5035659;28;20033;-80
2021/12/19 00:26:38;;;;;;;111.57;65.20;;;4.50;99.90;;;;;;5036724;28;20029;-80
2021/12/19 00:29:05;;;;;;;103.40;56.05;;;4.60;99.90;;;;;;5035587;28;20043;-79
2021/12/19 00:31:31;;;;;;;91.55;50.28;;;4.70;99.90;;;;;;5036771;28;20024;-79
2021/12/19 00:33:57;;;;;;;105.78;53.80;;;4.80;99.90;;;;;;5036956;28;20025;-79
2021/12/19 00:36:24;;;;;;;89.88;47.85;;;4.90;99.90;;;;;;5035080;28;20100;-80
2021/12/19 00:38:50;;;;;;;93.32;48.53;;;4.90;99.90;;;;;;5035497;28;20025;-80
2021/12/19 00:41:16;;;;;;;98.43;49.78;;;5.10;99.90;;;;;;5035410;28;20064;-81
2021/12/19 00:46:09;;;;;;;90.53;45.28;;;5.20;99.90;;;;;;5036571;28;20032;-80
2021/12/19 00:48:37;;;;;;;88.50;48.35;;;5.20;99.90;;;;;;5036761;28;20022;-81
2021/12/19 00:51:05;;;;;;;79.97;41.92;;;5.20;99.90;;;;;;5036337;28;20057;-80
2021/12/19 00:53:30;;;;;;;93.05;46.42;;;5.20;99.90;;;;;;5036754;28;20060;-80
2021/12/19 00:55:56;;;;;;;84.80;47.90;;;5.30;99.90;;;;;;5031654;28;20030;-80
2021/12/19 00:58:22;;;;;;;82.05;43.22;;;5.30;99.90;;;;;;5027894;28;20029;-80
2021/12/19 01:00:48;;;;;;;81.50;45.63;;;5.40;99.90;;;;;;5035292;28;20030;-80
2021/12/19 01:03:14;;;;;;;72.70;41.85;;;5.30;99.90;;;;;;5035615;28;20117;-79
2021/12/19 01:05:42;;;;;;;83.15;44.58;;;5.30;99.90;;;;;;5036360;28;20053;-80
2021/12/19 01:08:08;;;;;;;75.80;42.83;;;5.40;99.90;;;;;;5036244;28;20513;-80
2021/12/19 01:10:35;;;;;;;83.78;43.05;;;5.40;99.90;;;;;;5035365;28;20041;-80
2021/12/19 01:13:02;;;;;;;68.35;40.65;;;5.40;99.90;;;;;;5036536;28;20028;-80
2021/12/19 01:15:28;;;;;;;69.55;42.00;;;5.30;99.90;;;;;;5039030;28;20025;-80
2021/12/19 01:17:54;;;;;;;71.18;38.92;;;5.40;99.90;;;;;;5040211;28;20025;-79
2021/12/19 01:20:24;;;;;;;68.88;41.63;;;5.40;99.90;;;;;;5038418;28;20116;-80
2021/12/19 01:22:50;;;;;;;63.28;39.13;;;5.40;99.90;;;;;;5040137;28;20033;-79
2021/12/19 01:25:16;;;;;;;64.40;37.08;;;5.50;99.90;;;;;;5038538;28;20040;-80
2021/12/19 01:27:42;;;;;;;56.75;36.85;;;5.50;99.90;;;;;;5039822;28;20021;-80
2021/12/19 01:30:09;;;;;;;62.70;37.63;;;5.60;99.90;;;;;;5039634;28;20028;-80
2021/12/19 01:32:37;;;;;;;60.40;35.45;;;5.60;99.90;;;;;;5039962;28;20025;-79
2021/12/19 01:35:03;;;;;;;54.28;35.83;;;5.60;99.90;;;;;;5038253;28;20087;-80
2021/12/19 01:37:29;;;;;;;57.65;36.03;;;5.60;99.90;;;;;;5039875;28;20077;-80
2021/12/19 01:39:55;;;;;;;52.63;32.38;;;5.60;99.90;;;;;;5039499;28;20524;-80
2021/12/19 01:42:21;;;;;;;55.65;34.17;;;5.50;99.90;;;;;;5038307;28;20025;-80
2021/12/19 01:44:47;;;;;;;50.15;33.28;;;5.40;99.90;;;;;;5039640;28;20104;-79
2021/12/19 01:47:14;;;;;;;51.33;33.78;;;5.40;99.90;;;;;;5038276;28;20026;-80
2021/12/19 01:49:41;;;;;;;53.92;32.33;;;5.30;99.90;;;;;;5039345;28;20033;-80
2021/12/19 01:52:06;;;;;;;58.63;34.45;;;5.20;99.90;;;;;;5038106;28;20085;-80
2021/12/19 01:54:32;;;;;;;55.10;33.97;;;5.20;99.90;;;;;;5039390;28;20505;-80
2021/12/19 01:56:58;;;;;;;51.08;32.40;;;5.10;99.90;;;;;;5039299;28;20033;-79
2021/12/19 01:59:24;;;;;;;49.58;32.88;;;5.10;99.90;;;;;;5039301;28;20034;-80
2021/12/19 02:01:53;;;;;;;43.83;30.45;;;5.00;99.90;;;;;;5039268;28;20485;-79
2021/12/19 02:04:21;;;;;;;45.60;31.25;;;5.00;99.90;;;;;;5037873;28;20569;-80
2021/12/19 02:06:48;;;;;;;47.42;31.38;;;4.90;99.90;;;;;;5038697;28;20052;-80
2021/12/19 02:09:14;;;;;;;51.38;32.55;;;4.80;99.90;;;;;;5039595;28;20127;-80
2021/12/19 02:11:41;;;;;;;56.38;31.42;;;4.70;99.90;;;;;;5038866;28;20021;-80
2021/12/19 02:14:09;;;;;;;48.92;29.58;;;4.60;99.90;;;;;;5037818;28;20087;-80
2021/12/19 02:16:37;;;;;;;54.22;33.17;;;4.50;99.90;;;;;;5039022;28;20056;-80
2021/12/19 02:19:04;;;;;;;47.75;30.80;;;4.50;99.90;;;;;;5039218;28;20452;-80
2021/12/19 02:21:30;;;;;;;63.30;33.55;;;4.50;99.90;;;;;;5037383;28;20018;-80
2021/12/19 02:23:57;;;;;;;57.58;30.63;;;4.40;99.90;;;;;;5038863;28;20538;-80
2021/12/19 02:26:23;;;;;;;46.08;29.48;;;4.30;99.90;;;;;;5038571;28;20017;-80
2021/12/19 02:28:49;;;;;;;49.40;31.80;;;4.20;99.90;;;;;;5038857;28;20050;-80
2021/12/19 02:31:15;;;;;;;51.65;31.90;;;4.20;99.90;;;;;;5071201;28;20532;-81
2021/12/19 02:33:44;;;;;;;55.50;32.42;;;4.20;99.90;;;;;;5037332;28;20030;-81
2021/12/19 02:49:35;;;;;;;68.35;38.95;;;4.50;99.90;;;;;;5037351;28;20050;-80
2021/12/19 02:52:03;;;;;;;85.15;41.92;;;4.50;99.90;;;;;;5036910;28;20022;-80
2021/12/19 02:54:29;;;;;;;66.05;38.70;;;4.50;99.90;;;;;;5038111;28;20024;-80
2021/12/19 02:56:55;;;;;;;76.13;40.83;;;4.50;99.90;;;;;;5038170;28;20112;-79
2021/12/19 02:59:21;;;;;;;67.13;38.67;;;4.40;99.90;;;;;;5037940;28;20121;-80
2021/12/19 03:01:47;;;;;;;77.60;38.10;;;4.40;99.90;;;;;;5038221;28;20025;-80
2021/12/19 03:04:14;;;;;;;82.50;42.55;;;4.40;99.90;;;;;;5036757;28;20032;-80
2021/12/19 03:06:48;;;;;;;83.78;39.67;;;4.40;99.90;;;;;;5037705;28;20048;-80
2021/12/19 03:09:29;;;;;;;93.10;44.00;;;4.50;99.90;;;;;;5038074;28;20022;-81
2021/12/19 03:12:11;;;;;;;91.13;43.30;;;4.60;99.90;;;;;;5037744;28;20021;-80
2021/12/19 03:20:10;;;;;;;87.18;43.33;;;4.90;99.90;;;;;;5037737;28;20036;-80
2021/12/19 03:22:37;;;;;;;95.38;43.08;;;5.00;99.90;;;;;;5037732;28;20398;-80
2021/12/19 03:25:03;;;;;;;87.00;42.83;;;5.10;99.90;;;;;;5033800;28;20486;-80
2021/12/19 03:27:29;;;;;;;85.80;43.75;;;5.20;99.90;;;;;;5036339;28;20024;-81
2021/12/19 03:29:54;;;;;;;91.18;43.45;;;5.20;99.90;;;;;;5037632;28;20533;-80
2021/12/19 03:32:21;;;;;;;93.65;45.92;;;5.30;99.90;;;;;;5036358;28;20044;-80
2021/12/19 03:34:46;;;;;;;89.65;44.78;;;5.40;99.90;;;;;;5036073;28;20017;-80
2021/12/19 03:37:12;;;;;;;94.30;44.65;;;5.40;99.90;;;;;;5037036;28;20516;-80
2021/12/19 03:39:55;;;;;;;84.78;44.22;;;5.40;99.90;;;;;;5036082;28;20052;-79
2021/12/19 03:42:22;;;;;;;88.72;43.58;;;5.40;99.90;;;;;;5036081;28;20485;-80
2021/12/19 03:44:48;;;;;;;74.22;41.92;;;5.30;99.90;;;;;;5036207;28;20032;-80
2021/12/19 03:47:13;;;;;;;79.82;40.10;;;5.20;99.90;;;;;;5036023;28;20025;-80
2021/12/19 03:49:39;;;;;;;66.28;38.67;;;5.10;99.90;;;;;;5037263;28;20410;-80
2021/12/19 03:52:05;;;;;;;66.75;38.90;;;5.00;99.90;;;;;;5037204;28;20032;-80
2021/12/19 03:54:31;;;;;;;68.82;39.20;;;4.80;99.90;;;;;;5037224;28;20017;-80
2021/12/19 03:56:56;;;;;;;62.17;34.45;;;4.70;99.90;;;;;;5037487;28;20026;-80
2021/12/19 03:59:22;;;;;;;61.58;31.08;;;4.60;99.90;;;;;;5037006;28;20064;-80
2021/12/19 04:01:51;;;;;;;56.63;30.77;;;4.50;99.90;;;;;;5035969;28;20089;-80
2021/12/19 04:04:17;;;;;;;62.80;33.13;;;4.50;99.90;;;;;;5036980;28;20113;-80
2021/12/19 04:06:43;;;;;;;55.55;32.88;;;4.40;99.90;;;;;;5036859;28;20077;-80
2021/12/19 04:09:09;;;;;;;78.63;38.88;;;4.30;99.90;;;;;;5035671;28;20026;-80
2021/12/19 04:11:34;;;;;;;65.28;34.88;;;4.30;99.90;;;;;;5037109;28;20029;-80
2021/12/19 04:14:01;;;;;;;68.47;36.90;;;4.30;99.90;;;;;;5036978;28;20025;-80
2021/12/19 04:16:26;;;;;;;85.07;40.95;;;4.30;99.90;;;;;;5037151;28;20029;-80
2021/12/19 04:18:52;;;;;;;78.10;39.75;;;4.40;99.90;;;;;;5036932;28;20025;-80
2021/12/19 04:21:18;;;;;;;78.75;41.42;;;4.40;99.90;;;;;;5036967;28;20026;-80
2021/12/19 04:23:43;;;;;;;90.95;41.60;;;4.40;99.90;;;;;;5036853;28;20087;-80
2021/12/19 04:26:09;;;;;;;82.05;41.00;;;4.40;99.90;;;;;;5035725;28;20044;-80
2021/12/19 04:28:35;;;;;;;89.18;42.33;;;4.40;99.90;;;;;;5036669;28;20025;-80
2021/12/19 04:31:03;;;;;;;71.15;37.67;;;4.40;99.90;;;;;;5036958;28;20021;-80
2021/12/19 04:33:31;;;;;;;71.82;38.13;;;4.40;99.90;;;;;;5035512;28;20029;-80
2021/12/19 04:36:00;;;;;;;73.97;38.33;;;4.30;99.90;;;;;;5035166;28;20108;-80
2021/12/19 04:44:36;;;;;;;91.85;44.50;;;4.40;99.90;;;;;;5036867;28;20094;-80
2021/12/19 05:00:11;;;;;;;85.68;43.38;;;4.20;99.90;;;;;;5040652;28;20539;-80
2021/12/19 05:15:57;;;;;;;92.20;42.45;;;4.00;99.90;;;;;;5040443;28;20036;-79
2021/12/19 05:18:26;;;;;;;81.22;41.03;;;4.10;99.90;;;;;;5040034;28;20052;-80
2021/12/19 05:20:57;;;;;;;78.03;40.10;;;4.20;99.90;;;;;;5038623;28;20026;-80
2021/12/19 05:23:37;;;;;;;76.45;37.85;;;4.10;99.90;;;;;;5040300;28;20033;-80
2021/12/19 05:26:03;;;;;;;68.45;37.97;;;4.00;99.90;;;;;;5038711;28;20044;-80
2021/12/19 05:28:29;;;;;;;90.28;42.00;;;3.90;99.90;;;;;;5039641;28;20025;-80
2021/12/19 05:30:56;;;;;;;81.18;39.10;;;3.90;99.90;;;;;;5040047;28;20100;-81
2021/12/19 05:33:22;;;;;;;82.53;41.85;;;3.90;99.90;;;;;;5039814;28;20029;-80
2021/12/19 05:46:34;;;;;;;70.20;36.38;;;3.60;99.90;;;;;;5039609;28;20041;-80
2021/12/19 05:48:59;;;;;;;90.43;41.55;;;3.60;99.90;;;;;;5039608;28;20026;-80
2021/12/19 05:51:25;;;;;;;83.80;42.22;;;3.60;99.90;;;;;;5038204;28;20018;-80
2021/12/19 05:53:51;;;;;;;100.72;43.35;;;3.70;99.90;;;;;;5039446;28;20466;-80
2021/12/19 05:56:17;;;;;;;85.22;41.05;;;3.80;99.90;;;;;;5038363;28;20025;-80
2021/12/19 05:58:42;;;;;;;98.30;40.25;;;3.80;99.90;;;;;;5039478;28;20034;-80
2021/12/19 06:01:08;;;;;;;84.60;41.00;;;3.70;99.90;;;;;;5039108;28;20497;-80
2021/12/19 06:03:34;;;;;;;88.60;42.70;;;3.70;99.90;;;;;;5038050;28;20036;-80
2021/12/19 06:05:59;;;;;;;90.68;44.92;;;3.70;99.90;;;;;;5039089;28;20564;-79
2021/12/19 06:08:25;;;;;;;100.85;44.25;;;3.80;99.90;;;;;;5037777;28;20029;-80
2021/12/19 06:10:51;;;;;;;85.97;42.25;;;3.80;99.90;;;;;;5039240;28;20104;-79
2021/12/19 06:13:16;;;;;;;73.55;38.28;;;3.80;99.90;;;;;;5039049;28;20027;-80
2021/12/19 06:15:42;;;;;;;86.57;40.40;;;3.70;99.90;;;;;;5039183;28;20049;-80
2021/12/19 06:18:08;;;;;;;77.18;36.28;;;3.60;99.90;;;;;;5039035;28;20108;-80
2021/12/19 06:20:34;;;;;;;78.63;36.95;;;3.60;99.90;;;;;;5037567;28;20056;-80
2021/12/19 06:23:00;;;;;;;68.63;38.85;;;3.50;99.90;;;;;;5038876;28;20903;-81
2021/12/19 06:25:27;;;;;;;71.55;37.88;;;3.40;99.90;;;;;;5039103;28;20032;-81
2021/12/19 06:27:53;;;;;;;88.75;40.38;;;3.40;99.90;;;;;;5018764;28;20086;-79
2021/12/19 06:30:19;;;;;;;86.78;40.80;;;3.40;99.90;;;;;;5012921;28;20050;-81
2021/12/19 06:32:45;;;;;;;84.78;40.20;;;3.40;99.90;;;;;;5012393;28;20022;-81
2021/12/19 06:35:18;;;;;;;93.10;43.20;;;3.40;99.90;;;;;;5017331;28;20467;-81
2021/12/19 06:37:46;;;;;;;109.93;46.00;;;3.50;99.90;;;;;;5018850;28;20025;-81
2021/12/19 06:40:16;;;;;;;94.90;44.55;;;3.50;99.90;;;;;;5018978;28;20445;-81
2021/12/19 06:42:43;;;;;;;91.50;44.40;;;3.50;99.90;;;;;;5017315;28;20033;-81
2021/12/19 06:45:10;;;;;;;81.95;43.95;;;3.50;99.90;;;;;;5018940;28;20032;-81
2021/12/19 06:47:36;;;;;;;92.78;44.10;;;3.40;99.90;;;;;;5017460;28;20037;-81
2021/12/19 06:50:02;;;;;;;100.10;46.90;;;3.40;99.90;;;;;;5017308;28;20029;-80
2021/12/19 06:52:27;;;;;;;92.30;46.45;;;3.40;99.90;;;;;;5018468;28;20026;-80
2021/12/19 06:54:53;;;;;;;128.05;53.88;;;3.40;99.90;;;;;;5018778;28;20026;-80
2021/12/19 06:57:19;;;;;;;115.93;51.53;;;3.50;99.90;;;;;;5018415;28;20030;-80
2021/12/19 06:59:47;;;;;;;117.20;50.13;;;3.50;99.90;;;;;;5017139;28;20120;-81
2021/12/19 07:02:15;;;;;;;112.32;49.25;;;3.50;99.90;;;;;;5015023;28;20040;-81
2021/12/19 07:04:41;;;;;;;122.03;52.00;;;3.40;99.90;;;;;;5018567;28;20113;-81
2021/12/19 07:07:07;;;;;;;115.90;50.58;;;3.40;99.90;;;;;;5017848;28;20041;-81
2021/12/19 07:09:33;;;;;;;120.97;52.63;;;3.30;99.90;;;;;;5017044;28;20025;-81
2021/12/19 07:11:59;;;;;;;107.53;49.75;;;3.40;99.90;;;;;;5017393;28;20029;-80
2021/12/19 07:14:25;;;;;;;110.90;47.72;;;3.30;99.90;;;;;;5017144;28;20378;-81
2021/12/19 07:16:50;;;;;;;112.63;48.92;;;3.30;99.90;;;;;;5018080;28;20032;-81
2021/12/19 07:19:16;;;;;;;135.30;49.70;;;3.30;99.90;;;;;;5016884;28;20101;-81
2021/12/19 07:21:42;;;;;;;107.60;47.13;;;3.30;99.90;;;;;;5016507;28;20080;-81
2021/12/19 07:24:08;;;;;;;105.05;46.90;;;3.30;99.90;;;;;;5018066;28;20026;-81
2021/12/19 07:26:33;;;;;;;107.53;46.97;;;3.20;99.90;;;;;;5020431;28;20119;-81
2021/12/19 07:28:59;;;;;;;111.57;46.22;;;3.20;99.90;;;;;;5028853;28;20037;-81
2021/12/19 07:31:29;;;;;;;103.57;46.78;;;3.20;99.90;;;;;;5017965;28;20078;-81
2021/12/19 07:33:54;;;;;;;86.07;43.20;;;3.10;99.90;;;;;;5017905;28;20072;-81
2021/12/19 07:36:24;;;;;;;116.85;50.15;;;3.10;99.90;;;;;;5017291;28;20018;-81
2021/12/19 07:39:05;;;;;;;114.72;52.10;;;3.00;99.90;;;;;;5017785;28;20555;-81
2021/12/19 07:41:31;;;;;;;115.15;49.97;;;3.00;99.90;;;;;;5017792;28;20030;-81
2021/12/19 07:43:56;;;;;;;127.28;53.50;;;3.00;99.90;;;;;;5017859;28;20040;-81
2021/12/19 07:46:22;;;;;;;142.70;58.00;;;3.00;99.90;;;;;;5017484;28;20080;-81
2021/12/19 07:48:48;;;;;;;154.23;58.05;;;3.10;99.90;;;;;;5016164;28;20125;-81
2021/12/19 07:51:13;;;;;;;156.32;57.67;;;3.10;99.90;;;;;;5011498;28;20018;-80
2021/12/19 07:53:39;;;;;;;149.32;59.33;;;3.20;99.90;;;;;;5010059;28;20026;-81
2021/12/19 07:56:06;;;;;;;165.90;58.33;;;3.10;99.90;;;;;;5016988;28;20024;-81
2021/12/19 07:58:32;;;;;;;188.25;71.72;;;3.30;99.90;;;;;;5030013;28;20042;-80
2021/12/19 08:00:57;;;;;;;180.85;75.22;;;3.30;99.90;;;;;;5033960;28;20022;-79
2021/12/19 08:03:23;;;;;;;151.60;59.10;;;3.30;99.90;;;;;;5035940;28;20029;-79
2021/12/19 08:05:49;;;;;;;154.90;62.58;;;3.40;99.90;;;;;;5017260;28;20030;-79
2021/12/19 08:08:25;;;;;;;162.60;63.00;;;3.30;99.90;;;;;;5017211;28;20120;-79
2021/12/19 08:13:36;;;;;;;156.48;59.70;;;3.40;99.90;;;;;;5017189;28;20029;-79
2021/12/19 08:16:02;;;;;;;164.23;65.57;;;3.40;99.90;;;;;;5017341;28;20061;-79
2021/12/19 08:18:27;;;;;;;162.25;66.60;;;3.40;99.90;;;;;;5016002;28;20026;-79
2021/12/19 08:20:53;;;;;;;169.63;68.00;;;3.40;99.90;;;;;;5018204;28;20037;-79
2021/12/19 08:23:19;;;;;;;140.93;60.03;;;3.50;99.90;;;;;;5016215;28;20025;-79
2021/12/19 08:25:44;;;;;;;139.23;60.60;;;3.50;99.90;;;;;;5018070;28;20030;-76
2021/12/19 08:28:10;;;;;;;198.88;79.78;;;3.50;99.90;;;;;;5020508;28;20032;-77
2021/12/19 08:30:36;;;;;;;169.93;69.47;;;3.60;99.90;;;;;;5020568;28;20544;-77
2021/12/19 08:33:02;;;;;;;175.90;70.55;;;3.70;99.90;;;;;;5020452;28;20014;-77
2021/12/19 08:35:28;;;;;;;179.25;76.57;;;3.80;99.90;;;;;;5052089;28;20057;-77
2021/12/19 08:37:53;;;;;;;194.05;80.13;;;3.90;99.90;;;;;;5020541;28;20044;-77
2021/12/19 08:40:22;;;;;;;177.05;77.57;;;4.00;99.90;;;;;;5020300;28;20041;-77
2021/12/19 08:42:48;;;;;;;165.02;78.65;;;4.10;99.90;;;;;;5015940;28;20474;-77
2021/12/19 08:45:15;;;;;;;200.82;86.88;;;4.10;99.90;;;;;;5020571;28;20092;-76
2021/12/19 08:47:41;;;;;;;186.18;79.97;;;4.20;99.90;;;;;;5020618;28;20025;-77
2021/12/19 08:50:09;;;;;;;195.50;88.35;;;4.20;99.90;;;;;;5020748;28;20105;-77
2021/12/19 08:52:35;;;;;;;186.68;85.75;;;4.20;99.90;;;;;;5016253;28;20521;-77
2021/12/19 08:55:02;;;;;;;230.23;96.35;;;4.40;99.90;;;;;;5010625;28;20030;-77
2021/12/19 08:57:28;;;;;;;220.27;92.22;;;4.40;99.90;;;;;;5020604;28;20085;-77
2021/12/19 08:59:54;;;;;;;200.93;91.82;;;4.50;99.90;;;;;;5018853;28;20033;-77
2021/12/19 09:02:20;;;;;;;202.68;93.07;;;4.60;99.90;;;;;;5019249;28;20026;-77
2021/12/19 09:04:46;;;;;;;195.90;89.57;;;4.70;99.90;;;;;;5011415;28;20029;-77
2021/12/19 09:07:13;;;;;;;186.88;86.05;;;4.80;99.90;;;;;;5019918;28;20518;-76
2021/12/19 09:09:39;;;;;;;197.50;86.32;;;4.90;99.90;;;;;;5020519;28;20509;-76
2021/12/19 09:12:05;;;;;;;176.82;85.10;;;4.90;99.90;;;;;;5019934;28;20022;-76
2021/12/19 09:14:30;;;;;;;195.30;86.35;;;5.00;99.90;;;;;;5019305;28;20493;-76
2021/12/19 09:16:56;;;;;;;182.38;83.82;;;5.10;99.90;;;;;;5018809;28;20033;-76
2021/12/19 09:19:22;;;;;;;163.73;78.53;;;5.10;99.90;;;;;;5019249;28;20405;-77
2021/12/19 09:21:48;;;;;;;188.45;85.13;;;5.20;99.90;;;;;;5018708;28;20113;-76
2021/12/19 09:24:14;;;;;;;167.52;78.30;;;5.20;99.90;;;;;;5018896;28;20383;-77
2021/12/19 09:26:40;;;;;;;157.32;78.38;;;5.30;99.90;;;;;;5019688;28;20022;-76
2021/12/19 09:29:05;;;;;;;182.15;80.03;;;5.40;99.90;;;;;;5009094;28;20101;-76
2021/12/19 09:31:31;;;;;;;157.45;77.05;;;5.40;99.90;;;;;;5007564;28;20046;-77
2021/12/19 09:33:57;;;;;;;173.00;81.07;;;5.50;99.90;;;;;;5007491;28;20053;-77
2021/12/19 09:36:24;;;;;;;139.00;71.78;;;5.60;99.90;;;;;;5007764;28;20025;-76
2021/12/19 09:38:49;;;;;;;141.10;72.75;;;5.70;99.90;;;;;;5020967;28;20038;-76
2021/12/19 09:41:31;;;;;;;142.15;73.43;;;5.80;99.90;;;;;;5039172;28;20490;-76
2021/12/19 09:44:02;;;;;;;137.25;69.95;;;5.90;99.90;;;;;;5044632;28;20038;-76
2021/12/19 09:46:41;;;;;;;130.25;70.50;;;6.00;99.90;;;;;;5019700;28;20435;-76
2021/12/19 09:49:09;;;;;;;129.45;66.88;;;6.10;99.90;;;;;;5018416;28;20044;-76
2021/12/19 09:51:35;;;;;;;125.55;67.53;;;6.20;99.90;;;;;;5019755;28;20061;-76
2021/12/19 09:54:01;;;;;;;116.75;65.00;;;6.30;99.90;;;;;;5018317;28;20494;-76
2021/12/19 09:56:27;;;;;;;100.90;60.20;;;6.30;99.90;;;;;;5017971;28;20100;-76
2021/12/19 09:58:53;;;;;;;98.05;61.17;;;6.40;99.90;;;;;;5019476;28;20125;-76
2021/12/19 10:01:19;;;;;;;110.05;60.53;;;6.50;99.90;;;;;;5019737;28;20029;-76
2021/12/19 10:03:45;;;;;;;97.05;58.38;;;6.60;99.90;;;;;;5019400;28;20101;-76
2021/12/19 10:06:23;;;;;;;86.45;55.50;;;6.60;99.90;;;;;;5017833;28;20073;-76
2021/12/19 10:09:13;;;;;;;91.53;56.17;;;6.70;99.90;;;;;;5019238;28;20101;-76
2021/12/19 10:12:00;;;;;;;88.93;53.45;;;6.80;99.90;;;;;;5017931;28;20053;-76
2021/12/19 10:14:31;;;;;;;81.32;48.00;;;6.80;99.90;;;;;;5019426;28;20029;-76
2021/12/19 10:17:04;;;;;;;80.90;49.35;;;6.80;99.90;;;;;;5018913;28;20570;-78
2021/12/19 10:19:51;;;;;;;72.95;46.95;;;6.90;99.90;;;;;;5017798;28;20030;-79
2021/12/19 10:22:29;;;;;;;69.75;46.72;;;6.90;99.90;;;;;;5018955;28;20474;-79
2021/12/19 10:25:19;;;;;;;75.78;47.45;;;7.10;99.90;;;;;;5019134;28;20025;-78
2021/12/19 10:27:55;;;;;;;73.00;44.78;;;7.20;99.90;;;;;;5013961;28;20029;-78
2021/12/19 10:30:27;;;;;;;42.03;30.02;;;7.30;99.90;;;;;;5019120;28;20117;-79
2021/12/19 10:33:22;;;;;;;44.80;26.48;;;7.50;99.90;;;;;;5015152;28;20030;-78
2021/12/19 10:35:57;;;;;;;30.38;24.10;;;7.80;99.90;;;;;;5032990;28;20036;-79
2021/12/19 10:38:30;;;;;;;28.27;21.23;;;8.00;99.90;;;;;;5017370;28;20040;-79
2021/12/19 10:41:07;;;;;;;28.83;20.88;;;8.10;99.90;;;;;;5018728;28;20026;-78
2021/12/19 10:43:33;;;;;;;24.48;19.30;;;8.30;99.90;;;;;;5018791;28;20084;-79
2021/12/19 10:46:02;;;;;;;25.98;18.73;;;8.40;99.90;;;;;;5017056;28;20028;-79
2021/12/19 10:48:37;;;;;;;22.20;16.88;;;8.40;99.90;;;;;;5017844;28;20440;-79
2021/12/19 10:51:14;;;;;;;22.08;16.45;;;8.50;99.90;;;;;;5018373;28;20049;-79
2021/12/19 10:53:49;;;;;;;22.42;16.80;;;8.60;99.90;;;;;;5017150;28;20386;-79
2021/12/19 10:56:18;;;;;;;19.13;14.75;;;8.80;99.90;;;;;;5018621;28;20025;-78
2021/12/19 10:58:55;;;;;;;18.13;14.15;;;8.80;99.90;;;;;;5017099;28;20029;-79
2021/12/19 11:01:29;;;;;;;16.08;12.32;;;8.90;99.90;;;;;;5018749;28;20367;-78
2021/12/19 11:03:59;;;;;;;18.45;13.07;;;9.00;99.90;;;;;;5018268;28;20073;-78
2021/12/19 11:06:45;;;;;;;16.20;14.10;;;9.00;99.90;;;;;;5017858;28;20102;-80
2021/12/19 11:09:18;;;;;;;16.23;12.63;;;9.10;99.90;;;;;;5017857;28;20040;-79
2021/12/19 11:11:48;;;;;;;15.73;11.95;;;9.10;99.90;;;;;;5017978;28;20026;-79
2021/12/19 11:14:55;;;;;;;12.25;9.85;;;9.20;99.90;;;;;;5010993;28;20541;-80
2021/12/19 11:17:26;;;;;;;18.15;11.73;;;9.30;99.90;;;;;;5003739;28;20042;-82
2021/12/19 11:19:56;;;;;;;14.45;11.13;;;9.40;99.90;;;;;;5017048;28;20037;-79
2021/12/19 11:22:27;;;;;;;12.50;10.00;;;9.40;99.90;;;;;;5049365;28;20397;-79
2021/12/19 11:24:58;;;;;;;24.13;17.33;;;9.40;99.90;;;;;;5017366;28;20052;-79
2021/12/19 11:27:25;;;;;;;18.67;11.85;;;9.50;99.90;;;;;;5015173;28;20498;-79
2021/12/19 11:29:53;;;;;;;14.27;10.73;;;9.50;99.90;;;;;;5049330;28;20034;-79
2021/12/19 11:32:22;;;;;;;13.45;10.40;;;9.50;99.90;;;;;;5016166;28;20033;-79
2021/12/19 11:35:03;;;;;;;10.80;9.70;;;9.60;99.90;;;;;;5015800;28;20069;-79
2021/12/19 11:37:43;;;;;;;11.18;9.88;;;9.60;99.90;;;;;;5017780;28;20025;-79
2021/12/19 11:40:14;;;;;;;21.17;11.03;;;9.60;99.90;;;;;;5037587;28;20031;-79
2021/12/19 11:42:41;;;;;;;12.80;11.05;;;9.60;99.90;;;;;;5037346;28;20032;-79
2021/12/19 11:51:04;;;;;;;15.38;10.20;;;9.70;99.90;;;;;;5037023;28;20078;-79
2021/12/19 11:53:31;;;;;;;11.27;10.07;;;9.80;99.90;;;;;;5018697;28;20018;-79
2021/12/19 11:56:14;;;;;;;16.98;11.13;;;9.80;99.90;;;;;;5017511;28;20029;-79
2021/12/19 11:58:46;;;;;;;14.63;12.32;;;9.90;99.90;;;;;;5015859;28;20033;-79
2021/12/19 12:01:12;;;;;;;15.15;12.48;;;9.90;99.90;;;;;;5017412;28;20076;-79
2021/12/19 12:03:51;;;;;;;16.75;11.27;;;9.90;99.90;;;;;;5028798;28;20030;-79
2021/12/19 12:06:24;;;;;;;10.85;9.27;;;9.90;99.90;;;;;;5036716;28;20049;-81
2021/12/19 12:09:06;;;;;;;27.70;19.65;;;10.00;99.90;;;;;;5037038;28;20045;-79
2021/12/19 12:11:34;;;;;;;15.27;10.15;;;10.00;99.90;;;;;;5035685;28;20029;-80
2021/12/19 12:14:23;;;;;;;48.83;21.65;;;10.10;99.90;;;;;;5036923;28;20076;-81
2021/12/19 12:17:06;;;;;;;54.20;25.35;;;10.10;99.90;;;;;;5037012;28;20101;-82
2021/12/19 12:19:48;;;;;;;62.47;27.42;;;10.10;99.90;;;;;;5036733;28;20036;-82
2021/12/19 12:22:34;;;;;;;105.88;39.60;;;10.20;99.90;;;;;;5037099;28;20021;-81
2021/12/19 12:25:03;;;;;;;66.00;26.30;;;10.20;99.90;;;;;;5036982;28;20077;-82
2021/12/19 12:27:36;;;;;;;329.55;126.15;;;10.20;99.90;;;;;;5036767;28;20485;-82
2021/12/19 12:30:11;;;;;;;884.13;383.77;;;10.20;99.90;;;;;;5016283;28;20010;-81
2021/12/19 12:32:37;;;;;;;687.13;289.17;;;10.20;99.90;;;;;;5014166;28;20038;-82
2021/12/19 12:35:03;;;;;;;324.17;103.00;;;10.20;99.90;;;;;;5016189;28;20022;-81
2021/12/19 12:37:31;;;;;;;360.15;113.63;;;10.20;99.90;;;;;;5016622;28;20029;-82
2021/12/19 12:40:18;;;;;;;410.60;138.35;;;10.20;99.90;;;;;;5048170;28;20030;-80
2021/12/19 12:43:10;;;;;;;610.45;249.95;;;10.30;99.90;;;;;;5048266;28;20022;-81
2021/12/19 12:45:54;;;;;;;227.07;81.13;;;10.30;99.90;;;;;;5016531;28;20681;-81
2021/12/19 12:48:42;;;;;;;415.45;170.05;;;10.30;99.90;;;;;;5016398;28;20026;-81
2021/12/19 12:51:41;;;;;;;426.58;164.23;;;10.30;99.90;;;;;;5016202;28;20024;-83
2021/12/19 12:54:32;;;;;;;525.50;192.35;;;10.30;99.90;;;;;;5016470;28;20025;-81
2021/12/19 12:57:00;;;;;;;41.55;17.33;;;10.30;99.90;;;;;;5016329;28;20445;-81
2021/12/19 12:59:38;;;;;;;770.47;294.60;;;10.30;99.90;;;;;;5016393;28;20025;-81
2021/12/19 13:02:10;;;;;;;1224.78;472.42;;;10.40;99.90;;;;;;5015252;28;20072;-81
2021/12/19 13:04:38;;;;;;;579.60;191.90;;;10.30;99.90;;;;;;5012131;28;20026;-81
2021/12/19 13:07:09;;;;;;;1133.63;450.40;;;10.30;99.90;;;;;;5016122;28;20069;-81
2021/12/19 13:09:43;;;;;;;506.25;176.40;;;10.30;99.90;;;;;;5012276;28;20018;-81
2021/12/19 13:12:17;;;;;;;130.20;43.50;;;10.30;99.90;;;;;;5048732;28;20026;-82
2021/12/19 13:14:46;;;;;;;554.05;229.30;;;10.30;99.90;;;;;;5019650;28;20021;-82
2021/12/19 13:17:16;;;;;;;342.20;110.50;;;10.30;99.90;;;;;;5051854;28;20567;-80
2021/12/19 13:19:48;;;;;;;785.97;335.17;;;10.30;99.90;;;;;;5019883;28;20049;-82
2021/12/19 13:22:23;;;;;;;140.48;48.63;;;10.30;99.90;;;;;;5038010;28;20049;-82
2021/12/19 13:24:51;;;;;;;266.60;88.13;;;10.30;99.90;;;;;;5039905;28;20113;-82
2021/12/19 13:27:18;;;;;;;176.05;64.78;;;10.30;99.90;;;;;;5040010;28;20025;-82
2021/12/19 13:29:56;;;;;;;312.70;130.52;;;10.30;99.90;;;;;;5023450;28;20090;-83
2021/12/19 13:32:29;;;;;;;313.65;124.10;;;10.30;99.90;;;;;;5020391;28;20068;-82
2021/12/19 13:34:56;;;;;;;196.15;81.93;;;10.30;99.90;;;;;;5019693;28;20024;-82
2021/12/19 13:37:23;;;;;;;120.53;51.53;;;10.40;99.90;;;;;;5020385;28;20032;-82
2021/12/19 13:40:11;;;;;;;206.73;90.20;;;10.40;99.90;;;;;;5018641;28;20061;-83
2021/12/19 13:42:42;;;;;;;155.10;79.00;;;10.40;99.90;;;;;;5019997;28;20034;-82
2021/12/19 13:45:44;;;;;;;149.68;72.40;;;10.40;99.90;;;;;;5020273;28;20033;-82
2021/12/19 13:48:18;;;;;;;173.20;88.90;;;10.30;99.90;;;;;;5018593;28;20033;-82
2021/12/19 13:50:49;;;;;;;121.57;56.97;;;10.30;99.90;;;;;;5019875;28;20104;-83
2021/12/19 13:53:17;;;;;;;59.80;30.17;;;10.30;99.90;;;;;;5020040;28;20028;-83
2021/12/19 13:56:03;;;;;;;415.38;212.63;;;10.20;99.90;;;;;;5019651;28;20033;-82
2021/12/19 13:58:35;;;;;;;150.10;71.63;;;10.20;99.90;;;;;;5018476;28;20022;-83
2021/12/19 14:01:11;;;;;;;110.85;53.70;;;10.10;99.90;;;;;;5019555;28;20029;-82